Time;durP1;ratioP1;P1;durP2;ratioP2;P2;SDS_P1;SDS_P2;PMS_P1;PMS_P2;Temp;Humidity;BMP_temperature;BMP_pressure;BME280_temperature;BME280_humidity;BME280_pressure;Samples;Min_cycle;Max_cycle;Signal;HPM_P1;HPM_P2
2022/11/06 00:00:07;;;;;;;16.52;12.63;;;;;;;5.94;84.34;100351.03;1087953;54;20045;-76
2022/11/06 00:01:17;;;;;;;17.17;13.25;;;;;;;5.95;84.23;100346.59;1088108;54;20046;-78
2022/11/06 00:02:18;;;;;;;15.88;12.02;;;;;;;5.98;84.23;100337.56;1088416;46;20717;-78
2022/11/06 00:03:23;;;;;;;19.58;13.02;;;;;;;6.05;83.98;100344.16;1088009;54;20053;-78
2022/11/06 00:04:27;;;;;;;18.05;12.82;;;;;;;5.98;84.20;100349.00;1088076;54;20744;-77
2022/11/06 00:06:51;;;;;;;15.80;11.57;;;;;;;6.18;83.39;100336.16;1087965;54;20053;-78
2022/11/06 00:07:52;;;;;;;13.20;10.25;;;;;;;6.29;83.05;100336.25;1088065;54;20034;-78
2022/11/06 00:08:57;;;;;;;16.10;10.70;;;;;;;6.38;82.54;100330.28;1088090;47;20027;-78
2022/11/06 00:09:58;;;;;;;13.02;9.25;;;;;;;6.48;82.23;100335.75;1087998;54;20019;-77
2022/11/06 00:11:03;;;;;;;13.55;9.90;;;;;;;6.54;82.08;100337.97;1088026;54;20081;-78
2022/11/06 00:12:05;;;;;;;15.02;9.52;;;;;;;6.61;81.77;100334.88;1088048;54;20044;-78
2022/11/06 00:13:09;;;;;;;12.40;9.07;;;;;;;6.65;81.50;100328.38;1088028;54;21105;-79
2022/11/06 00:14:11;;;;;;;12.20;9.88;;;;;;;6.70;81.65;100337.72;1088005;54;20022;-79
2022/11/06 00:15:15;;;;;;;11.88;9.00;;;;;;;6.72;81.27;100338.44;1088018;54;20019;-78
2022/11/06 00:16:20;;;;;;;12.55;10.00;;;;;;;6.75;81.12;100332.06;1087982;54;20030;-79
2022/11/06 00:17:24;;;;;;;13.93;10.82;;;;;;;6.77;81.16;100332.78;1088006;54;20078;-78
2022/11/06 00:18:26;;;;;;;11.05;9.32;;;;;;;6.81;80.79;100333.38;1088016;54;20062;-78
2022/11/06 00:19:30;;;;;;;12.65;9.88;;;;;;;6.84;80.80;100338.50;1088047;54;20030;-78
2022/11/06 00:20:33;;;;;;;10.65;9.20;;;;;;;6.89;80.54;100343.47;1088094;54;20038;-78
2022/11/06 00:21:37;;;;;;;13.05;10.10;;;;;;;6.91;80.35;100334.41;1087814;54;20030;-79
2022/11/06 00:22:43;;;;;;;11.23;9.07;;;;;;;6.92;80.65;100344.09;1088007;54;20041;-77
2022/11/06 00:23:48;;;;;;;13.20;9.15;;;;;;;6.96;80.57;100342.03;1088028;54;20030;-76
2022/11/06 00:24:50;;;;;;;11.60;9.10;;;;;;;6.96;80.11;100344.69;1088068;46;20053;-77
2022/11/06 00:25:55;;;;;;;12.80;9.00;;;;;;;6.88;80.42;100347.94;1087973;54;20045;-77
2022/11/06 00:27:00;;;;;;;13.70;9.57;;;;;;;6.81;80.60;100347.53;1087965;54;20082;-78
2022/11/06 00:28:01;;;;;;;15.07;10.38;;;;;;;6.73;80.81;100333.97;1087985;54;20039;-80
2022/11/06 00:29:07;;;;;;;14.40;10.85;;;;;;;6.71;80.92;100339.38;1089031;46;20018;-77
2022/11/06 00:30:10;;;;;;;14.35;10.60;;;;;;;6.71;80.96;100341.22;1088097;54;20038;-79
2022/11/06 00:31:16;;;;;;;14.90;11.43;;;;;;;6.65;81.26;100342.50;1087993;54;20030;-78
2022/11/06 00:32:20;;;;;;;14.55;10.98;;;;;;;6.68;81.01;100342.28;1087981;54;20024;-77
2022/11/06 00:33:25;;;;;;;15.57;11.35;;;;;;;6.56;81.34;100343.16;1088056;54;20014;-78
2022/11/06 00:34:27;;;;;;;15.77;11.48;;;;;;;6.48;81.85;100338.41;1088025;54;20098;-78
2022/11/06 00:35:31;;;;;;;17.63;12.75;;;;;;;6.52;81.68;100336.38;1088051;54;20048;-76
2022/11/06 00:36:35;;;;;;;15.07;11.45;;;;;;;6.55;81.51;100336.16;1088012;54;20035;-78
2022/11/06 00:37:39;;;;;;;13.98;11.02;;;;;;;6.56;81.42;100340.50;1087840;54;20073;-77
2022/11/06 00:38:41;;;;;;;13.57;10.48;;;;;;;6.65;81.19;100341.66;1087981;54;20038;-79
2022/11/06 00:39:46;;;;;;;13.57;10.20;;;;;;;6.71;80.96;100333.25;1088077;54;20031;-78
2022/11/06 00:40:47;;;;;;;12.95;9.77;;;;;;;6.76;80.75;100333.72;1088018;54;20045;-79
2022/11/06 00:41:51;;;;;;;12.35;9.68;;;;;;;6.84;80.43;100341.16;1087966;54;20030;-78
2022/11/06 00:42:54;;;;;;;14.13;10.38;;;;;;;6.87;80.29;100340.94;1087962;54;20030;-78
2022/11/06 00:44:00;;;;;;;13.57;8.98;;;;;;;6.89;80.42;100343.47;1088000;54;20214;-78
2022/11/06 00:45:01;;;;;;;11.68;8.88;;;;;;;6.91;79.97;100337.06;1087459;54;20038;-80
2022/11/06 00:46:07;;;;;;;11.43;8.93;;;;;;;6.93;80.16;100340.47;1087872;54;20030;-79
2022/11/06 00:47:11;;;;;;;13.55;9.40;;;;;;;6.94;79.95;100336.84;1087955;54;20034;-79
2022/11/06 00:48:18;;;;;;;13.45;9.27;;;;;;;6.96;79.73;100340.25;1088028;54;20022;-80
2022/11/06 00:49:34;;;;;;;14.48;9.65;;;;;;;6.95;79.69;100338.53;1087988;54;20043;-80
2022/11/06 00:53:28;;;;;;;12.07;9.45;;;;;;;6.90;80.01;100348.66;1087947;54;20090;-77
2022/11/06 00:54:30;;;;;;;11.27;8.77;;;;;;;6.90;79.73;100350.47;1087979;54;20792;-78
2022/11/06 00:56:55;;;;;;;13.13;10.27;;;;;;;6.87;80.03;100344.41;1087948;54;20090;-80
2022/11/06 00:57:57;;;;;;;15.23;10.65;;;;;;;6.83;79.98;100348.28;1087973;54;20023;-80
2022/11/06 00:59:04;;;;;;;13.02;10.90;;;;;;;6.79;80.08;100340.66;1087995;54;20702;-78
2022/11/06 01:00:07;;;;;;;15.68;10.77;;;;;;;6.80;80.28;100350.31;1088002;54;20034;-79
2022/11/06 01:01:18;;;;;;;12.77;9.80;;;;;;;6.80;80.33;100350.31;1088006;54;20014;-80
2022/11/06 01:02:19;;;;;;;13.15;8.90;;;;;;;6.82;80.23;100348.38;1087941;54;20038;-80
2022/11/06 01:04:30;;;;;;;14.10;10.35;;;;;;;6.83;80.20;100339.44;1087899;54;20030;-78
2022/11/06 01:05:34;;;;;;;12.82;8.93;;;;;;;6.83;80.43;100339.44;1087912;54;20026;-80
2022/11/06 01:06:45;;;;;;;14.63;10.43;;;;;;;6.79;80.19;100349.47;1087991;54;20030;-79
2022/11/06 01:07:46;;;;;;;13.00;9.27;;;;;;;6.79;80.30;100338.00;1087950;54;20801;-79
2022/11/06 01:08:57;;;;;;;15.38;10.02;;;;;;;6.79;80.16;100343.31;1087975;54;20041;-80
2022/11/06 01:11:09;;;;;;;13.05;9.38;;;;;;;6.75;80.03;100336.50;1087923;54;20034;-80
2022/11/06 01:12:11;;;;;;;15.75;11.60;;;;;;;6.71;80.38;100334.06;1088001;54;20034;-79
2022/11/06 01:13:27;;;;;;;17.23;12.07;;;;;;;6.67;80.51;100337.06;1087977;54;20028;-79
2022/11/06 01:14:29;;;;;;;15.70;11.13;;;;;;;6.63;80.86;100333.78;1087964;54;20038;-78
2022/11/06 01:15:37;;;;;;;16.65;11.73;;;;;;;6.60;80.73;100334.03;1088032;47;20074;-79
2022/11/06 01:16:40;;;;;;;14.85;11.73;;;;;;;6.56;81.00;100332.56;1087922;54;20038;-79
2022/11/06 01:17:44;;;;;;;15.25;11.57;;;;;;;6.55;80.94;100330.84;1087965;54;20030;-79
2022/11/06 01:18:49;;;;;;;15.18;12.23;;;;;;;6.53;81.03;100330.97;1087952;54;20034;-79
2022/11/06 01:19:59;;;;;;;14.18;11.40;;;;;;;6.52;80.78;100331.94;1087941;54;20037;-80
2022/11/06 01:21:05;;;;;;;15.00;11.77;;;;;;;6.51;81.14;100324.91;1087971;54;20054;-79
2022/11/06 01:22:09;;;;;;;12.93;10.65;;;;;;;6.53;81.14;100324.78;1088015;54;20030;-78
2022/11/06 01:23:22;;;;;;;12.65;9.88;;;;;;;6.58;80.97;100332.44;1088180;54;20042;-78
2022/11/06 01:24:27;;;;;;;13.73;10.38;;;;;;;6.61;81.02;100319.78;1088345;54;20018;-78
2022/11/06 01:26:36;;;;;;;13.55;10.02;;;;;;;6.62;80.95;100331.25;1087885;54;20031;-79
2022/11/06 01:27:40;;;;;;;14.73;10.13;;;;;;;6.65;80.94;100326.56;1087930;54;20023;-81
2022/11/06 01:28:42;;;;;;;13.52;10.20;;;;;;;6.58;81.04;100330.63;1088588;46;20034;-80
2022/11/06 01:29:46;;;;;;;14.23;9.95;;;;;;;6.57;81.21;100331.59;1089541;46;20035;-80
2022/11/06 01:30:48;;;;;;;13.50;10.25;;;;;;;6.60;81.18;100330.50;1087869;54;20041;-79
2022/11/06 01:31:52;;;;;;;14.60;9.68;;;;;;;6.62;81.05;100329.44;1087899;54;20030;-79
2022/11/06 01:33:29;;;;;;;14.43;10.60;;;;;;;6.55;81.30;100333.50;1087751;54;20018;-81
2022/11/06 01:34:34;;;;;;;12.55;9.50;;;;;;;6.60;81.10;100328.72;1088338;54;20019;-81
2022/11/06 01:35:43;;;;;;;12.55;9.15;;;;;;;6.63;80.90;100331.13;1088429;54;20091;-83
2022/11/06 01:36:49;;;;;;;14.25;9.68;;;;;;;6.68;80.77;100330.78;1088547;54;20015;-81
2022/11/06 01:37:51;;;;;;;12.00;9.70;;;;;;;6.72;80.45;100332.28;1089553;46;20024;-82
2022/11/06 01:39:13;;;;;;;12.48;9.43;;;;;;;6.73;80.27;100331.31;1089909;39;20606;-84
2022/11/06 01:40:17;;;;;;;13.18;8.45;;;;;;;6.70;80.60;100332.41;1088559;54;20025;-81
2022/11/06 01:41:21;;;;;;;12.18;9.75;;;;;;;6.70;80.38;100329.75;1099138;39;20512;-82
2022/11/06 02:00:10;;;;;;;12.60;10.20;;;;;;;6.50;80.46;100327.69;1087589;54;20022;-82
2022/11/06 02:27:29;;;;;;;13.25;10.57;;;;;;;6.04;81.63;100274.31;1086876;54;20054;-81
2022/11/06 02:28:36;;;;;;;15.80;11.32;;;;;;;5.84;82.21;100280.16;1098282;47;20030;-81
2022/11/06 02:33:19;;;;;;;13.45;10.90;;;;;;;5.67;82.56;100270.72;1087593;47;20026;-82
2022/11/06 02:34:25;;;;;;;14.57;11.35;;;;;;;5.61;82.84;100261.38;1101760;39;20417;-84
2022/11/06 02:41:20;;;;;;;12.77;10.15;;;;;;;5.67;82.15;100260.94;1090970;39;20748;-83
2022/11/06 02:42:28;;;;;;;13.00;10.20;;;;;;;5.67;82.36;100263.59;1088214;54;20014;-82
2022/11/06 02:43:39;;;;;;;14.68;10.52;;;;;;;5.65;82.23;100264.66;1115763;31;20532;-80
2022/11/06 02:44:42;;;;;;;15.73;10.70;;;;;;;5.58;82.46;100261.59;1088090;54;20736;-79
2022/11/06 02:45:52;;;;;;;14.80;10.23;;;;;;;5.51;82.83;100258.53;1088136;54;20026;-79
2022/11/06 02:49:00;;;;;;;15.35;10.95;;;;;;;5.44;83.39;100259.91;1088320;54;20010;-79
2022/11/06 02:50:06;;;;;;;14.75;10.10;;;;;;;5.45;82.80;100257.16;1088567;54;20015;-82
2022/11/06 02:53:06;;;;;;;14.27;10.40;;;;;;;5.37;83.40;100248.88;1088324;54;20010;-80
2022/11/06 02:55:19;;;;;;;13.60;10.88;;;;;;;5.35;83.25;100248.13;1088132;54;20018;-82
2022/11/06 02:56:24;;;;;;;14.32;10.38;;;;;;;5.40;83.04;100246.00;1088530;54;20046;-81
2022/11/06 02:57:35;;;;;;;16.00;10.95;;;;;;;5.41;82.88;100245.06;1090174;39;20508;-82
2022/11/06 02:58:40;;;;;;;14.02;9.52;;;;;;;5.38;83.06;100245.28;1088482;54;20022;-82
2022/11/06 02:59:51;;;;;;;14.68;10.73;;;;;;;5.31;83.13;100249.28;1088539;54;20091;-81
2022/11/06 03:00:56;;;;;;;;;;;;;;;5.24;83.74;100243.56;1088719;54;20038;-81
2022/11/06 03:02:04;;;;;;;13.95;10.32;;;;;;;5.24;83.79;100238.25;1088187;54;19943;-79
2022/11/06 03:03:11;;;;;;;15.65;10.43;;;;;;;5.22;83.75;100239.31;1088097;54;20038;-79
2022/11/06 03:07:54;;;;;;;12.25;8.77;;;;;;;5.56;82.23;100237.00;1088228;54;20058;-79
2022/11/06 03:09:01;;;;;;;13.05;8.52;;;;;;;5.60;82.04;100233.16;1088144;54;20041;-79
2022/11/06 03:10:08;;;;;;;11.50;8.25;;;;;;;5.67;81.78;100231.75;1089175;46;20018;-79
2022/11/06 03:11:16;;;;;;;11.57;7.93;;;;;;;5.73;81.56;100233.13;1088134;54;20015;-79
2022/11/06 03:16:08;;;;;;;10.93;8.40;;;;;;;5.72;81.44;100216.38;1087859;54;20030;-79
2022/11/06 03:17:14;;;;;;;11.27;8.50;;;;;;;5.74;81.55;100218.91;1087830;54;20026;-79
2022/11/06 03:18:27;;;;;;;8.88;7.55;;;;;;;5.77;81.41;100224.00;1087840;54;20781;-80
2022/11/06 03:19:34;;;;;;;10.52;7.53;;;;;;;5.83;81.14;100225.38;1090766;39;20697;-80
2022/11/06 03:20:39;;;;;;;11.43;8.43;;;;;;;5.81;81.25;100219.31;1087875;54;20030;-78
2022/11/06 03:21:54;;;;;;;10.63;8.65;;;;;;;5.73;80.97;100223.38;1087900;54;20030;-79
2022/11/06 03:23:05;;;;;;;12.60;8.68;;;;;;;5.78;81.13;100228.38;1088230;39;21006;-78
2022/11/06 03:24:15;;;;;;;12.50;8.52;;;;;;;5.81;81.02;100224.63;1087871;54;20031;-79
2022/11/06 03:25:21;;;;;;;10.63;7.43;;;;;;;5.85;81.07;100229.63;1087840;54;20031;-79
2022/11/06 03:26:34;;;;;;;11.40;8.75;;;;;;;5.80;80.60;100231.75;1087754;54;20474;-78
2022/11/06 03:27:42;;;;;;;11.27;8.57;;;;;;;5.81;80.68;100227.28;1088561;54;20053;-83
2022/11/06 03:28:54;;;;;;;12.50;9.05;;;;;;;5.84;80.62;100235.03;1088543;54;20021;-83
2022/11/06 03:30:02;;;;;;;11.18;8.38;;;;;;;5.86;80.44;100235.75;1095046;46;20038;-82
2022/11/06 03:31:13;;;;;;;10.82;7.85;;;;;;;5.85;80.71;100239.41;1088684;46;20031;-82
2022/11/06 03:32:19;;;;;;;13.73;10.10;;;;;;;5.83;80.99;100239.47;1090391;46;20066;-79
2022/11/06 03:33:28;;;;;;;12.00;9.45;;;;;;;5.83;80.93;100243.94;1088106;54;20030;-78
2022/11/06 03:34:35;;;;;;;16.30;10.70;;;;;;;5.70;81.27;100239.50;1088059;54;20035;-79
2022/11/06 03:37:32;;;;;;;17.08;11.23;;;;;;;5.59;81.91;100242.06;1088015;54;20030;-79
2022/11/06 03:38:39;;;;;;;13.77;11.00;;;;;;;5.63;81.71;100238.25;1088145;54;20042;-79
2022/11/06 03:44:28;;;;;;;13.43;9.98;;;;;;;5.56;81.32;100234.34;1087978;54;20033;-80
2022/11/06 03:45:35;;;;;;;13.43;10.15;;;;;;;5.59;81.48;100232.31;1088689;46;20035;-85
2022/11/06 03:46:47;;;;;;;14.23;11.00;;;;;;;5.46;81.95;100227.03;1089201;46;20041;-85
2022/11/06 03:47:56;;;;;;;14.00;10.55;;;;;;;5.51;81.68;100225.84;1088179;54;20130;-82
2022/11/06 03:49:01;;;;;;;13.57;8.77;;;;;;;5.51;81.48;100224.06;1088009;54;20069;-82
2022/11/06 03:50:15;;;;;;;14.82;10.63;;;;;;;5.51;81.24;100220.53;1089706;46;20046;-80
2022/11/06 03:51:20;;;;;;;16.52;12.95;;;;;;;5.30;81.55;100210.47;1088073;54;20042;-82
2022/11/06 03:52:37;;;;;;;16.95;12.88;;;;;;;5.20;81.69;100218.22;1088065;54;20117;-82
2022/11/06 03:53:44;;;;;;;15.93;12.25;;;;;;;5.07;82.47;100207.63;1088149;54;20023;-82
2022/11/06 03:54:54;;;;;;;15.43;11.35;;;;;;;5.13;82.49;100209.84;1090625;46;20888;-82
2022/11/06 03:56:02;;;;;;;14.57;11.15;;;;;;;5.05;82.44;100214.84;1089345;46;20038;-82
2022/11/06 03:57:11;;;;;;;14.57;11.88;;;;;;;5.07;82.55;100215.59;1088184;54;20034;-82
2022/11/06 03:58:18;;;;;;;14.73;10.35;;;;;;;5.08;82.60;100214.63;1088214;54;20018;-82
2022/11/06 03:59:25;;;;;;;14.10;10.25;;;;;;;5.11;82.41;100216.22;1088035;54;20052;-82
2022/11/06 04:00:27;;;;;;;13.07;9.93;;;;;;;5.13;82.45;100212.50;1088077;54;20057;-81
2022/11/06 04:01:35;;;;;;;12.00;9.75;;;;;;;5.22;82.21;100215.47;1089288;46;20042;-82
2022/11/06 04:02:43;;;;;;;13.45;9.85;;;;;;;5.21;81.97;100217.28;1088948;46;20686;-81
2022/11/06 04:03:53;;;;;;;11.95;8.63;;;;;;;5.23;81.71;100219.81;1088466;46;20031;-82
2022/11/06 04:04:58;;;;;;;13.55;9.65;;;;;;;5.25;81.77;100223.22;1090237;46;20038;-82
2022/11/06 04:06:08;;;;;;;11.50;9.23;;;;;;;5.25;81.78;100220.56;1088088;54;20038;-80
2022/11/06 04:07:15;;;;;;;12.25;8.75;;;;;;;5.23;81.55;100214.50;1088188;54;20019;-82
2022/11/06 04:15:01;;;;;;;12.77;9.95;;;;;;;5.03;81.73;100219.38;1088330;54;20982;-82
2022/11/06 04:16:02;;;;;;;14.82;10.32;;;;;;;4.96;81.68;100212.81;1088452;54;20127;-82
2022/11/06 04:17:11;;;;;;;13.00;10.27;;;;;;;4.92;81.90;100220.13;1088366;54;20078;-82
2022/11/06 04:18:17;;;;;;;13.50;10.32;;;;;;;4.86;81.57;100209.94;1088350;54;20019;-82
2022/11/06 04:19:23;;;;;;;12.82;10.93;;;;;;;4.82;82.09;100211.09;1088308;54;20037;-82
2022/11/06 04:22:12;;;;;;;12.05;9.20;;;;;;;4.78;82.07;100215.75;1088373;54;20037;-81
2022/11/06 04:23:24;;;;;;;11.68;9.40;;;;;;;4.77;81.95;100208.75;1088415;54;20026;-82
2022/11/06 04:28:34;;;;;;;11.77;9.45;;;;;;;4.41;82.71;100202.34;1083059;54;20831;31
2022/11/06 04:29:47;;;;;;;14.23;10.88;;;;;;;4.35;82.81;100208.88;1089903;46;20022;-85
2022/11/06 04:33:12;;;;;;;13.23;11.30;;;;;;;4.29;82.55;100205.78;1088061;39;21196;-84
2022/11/06 04:34:23;;;;;;;13.98;11.23;;;;;;;4.21;83.06;100209.78;1098919;46;20022;-81
2022/11/06 06:12:07;;;;;;;9.90;7.50;;;;;;;3.49;85.75;100201.13;1089505;39;20484;-83
2022/11/06 06:13:09;;;;;;;12.82;8.40;;;;;;;3.49;85.64;100199.34;1088172;54;20031;-82
2022/11/06 06:14:13;;;;;;;10.98;8.25;;;;;;;3.50;85.63;100195.75;1088324;54;20034;-82
2022/11/06 06:15:16;;;;;;;9.90;7.75;;;;;;;3.55;85.57;100198.97;1088263;54;20035;-83
2022/11/06 06:18:34;;;;;;;14.27;7.78;;;;;;;3.52;85.56;100199.16;1088246;54;20014;-82
2022/11/06 06:20:33;;;;;;;21.38;10.00;;;;;;;3.35;85.89;100191.41;1088237;54;20015;-80
2022/11/06 06:21:35;;;;;;;17.10;8.10;;;;;;;3.38;86.14;100192.06;1088210;54;20042;-80
2022/11/06 06:22:39;;;;;;;13.68;8.32;;;;;;;3.38;85.84;100197.34;1088215;54;20030;-80
2022/11/06 06:23:41;;;;;;;17.58;8.68;;;;;;;3.40;86.18;100189.34;1088674;39;20871;-80
2022/11/06 06:24:55;;;;;;;10.85;7.82;;;;;;;3.44;85.97;100190.84;1088549;54;20031;-80
2022/11/06 06:29:24;;;;;;;12.85;7.65;;;;;;;3.38;86.36;100188.59;1088186;54;20046;-80
2022/11/06 06:30:26;;;;;;;15.65;7.28;;;;;;;3.45;86.10;100197.84;1088088;54;20061;-80
2022/11/06 06:31:30;;;;;;;11.65;6.82;;;;;;;3.53;85.88;100195.56;1088196;54;20050;-80
2022/11/06 06:32:32;;;;;;;10.30;7.45;;;;;;;3.58;86.05;100197.91;1088173;54;20035;-80
2022/11/06 06:33:37;;;;;;;9.60;7.38;;;;;;;3.58;85.62;100200.56;1088136;54;20027;-80
2022/11/06 06:34:41;;;;;;;10.90;7.63;;;;;;;3.61;85.88;100208.31;1088182;54;20082;-80
2022/11/06 06:35:42;;;;;;;13.52;8.07;;;;;;;3.63;85.58;100205.56;1088968;39;20693;-81
2022/11/06 06:36:50;;;;;;;12.43;7.65;;;;;;;3.64;85.23;100194.03;1088180;46;20090;-80
2022/11/06 06:37:52;;;;;;;8.50;6.63;;;;;;;3.66;85.04;100193.00;1088015;54;20057;-80
2022/11/06 06:38:57;;;;;;;19.67;8.48;;;;;;;3.67;85.32;100188.56;1088108;54;20836;-80
2022/11/06 06:39:59;;;;;;;14.68;8.05;;;;;;;3.62;85.35;100190.63;1088096;54;20654;-80
2022/11/06 06:41:04;;;;;;;20.55;8.95;;;;;;;3.62;85.58;100190.63;1088125;54;20045;-80
2022/11/06 06:42:05;;;;;;;18.48;9.27;;;;;;;3.57;85.53;100186.50;1088111;54;20030;-79
2022/11/06 06:43:09;;;;;;;12.57;8.95;;;;;;;3.50;85.98;100182.53;1088172;54;20098;-80
2022/11/06 06:44:14;;;;;;;31.90;11.60;;;;;;;3.47;85.87;100185.38;1088163;54;20038;-80
2022/11/06 06:45:18;;;;;;;14.80;9.15;;;;;;;3.43;86.32;100183.84;1088137;54;20030;-79
2022/11/06 06:46:22;;;;;;;23.60;9.07;;;;;;;3.40;86.67;100184.91;1088105;54;20032;-80
2022/11/06 06:47:24;;;;;;;14.68;8.75;;;;;;;3.47;86.67;100185.38;1088107;54;20038;-80
2022/11/06 06:48:29;;;;;;;10.63;7.75;;;;;;;3.51;86.59;100192.16;1088157;54;20031;-80
2022/11/06 06:49:31;;;;;;;27.05;9.35;;;;;;;3.53;86.50;100186.78;1088198;54;20041;-80
2022/11/06 06:50:35;;;;;;;27.73;9.88;;;;;;;3.51;86.31;100181.59;1088137;54;20757;-80
2022/11/06 06:51:36;;;;;;;15.93;9.90;;;;;;;3.47;86.60;100174.81;1088099;54;20034;-79
2022/11/06 06:52:40;;;;;;;18.00;10.15;;;;;;;3.42;87.00;100179.50;1088139;54;20030;-81
2022/11/06 06:53:45;;;;;;;19.60;9.77;;;;;;;3.43;87.31;100170.66;1088173;54;20959;-79
2022/11/06 06:54:46;;;;;;;24.25;11.45;;;;;;;3.38;87.21;100167.44;1088151;54;20034;-80
2022/11/06 06:55:51;;;;;;;29.25;10.48;;;;;;;3.41;87.72;100170.75;1088090;54;20054;-80
2022/11/06 06:56:52;;;;;;;14.95;9.07;;;;;;;3.44;87.42;100175.00;1088046;54;20041;-80
2022/11/06 06:58:00;;;;;;;16.63;9.43;;;;;;;3.47;87.15;100169.53;1088173;54;20035;-80
2022/11/06 06:59:05;;;;;;;10.68;8.52;;;;;;;3.55;87.11;100169.03;1088143;54;20046;-80
2022/11/06 07:00:09;;;;;;;10.73;8.23;;;;;;;3.63;86.86;100161.47;1088138;54;20045;-80
2022/11/06 07:01:16;;;;;;;15.27;9.50;;;;;;;3.68;87.03;100163.81;1088128;54;20031;-80
2022/11/06 07:02:25;;;;;;;15.43;9.70;;;;;;;3.65;87.10;100161.38;1088101;54;20030;-79
2022/11/06 07:03:30;;;;;;;22.77;11.32;;;;;;;3.64;87.09;100151.72;1089399;46;20026;-79
2022/11/06 07:04:35;;;;;;;17.75;11.07;;;;;;;3.61;86.97;100155.44;1088232;54;20034;-80
2022/11/06 07:05:37;;;;;;;26.33;11.98;;;;;;;3.55;87.29;100151.38;1088196;54;20042;-80
2022/11/06 07:06:48;;;;;;;19.80;11.15;;;;;;;3.54;87.42;100140.91;1088361;54;20018;-79
2022/11/06 07:07:52;;;;;;;19.38;11.35;;;;;;;3.50;87.26;100142.88;1089216;46;20050;-80
2022/11/06 07:08:58;;;;;;;28.60;11.07;;;;;;;3.53;87.22;100136.56;1090110;46;20031;-80
2022/11/06 07:10:00;;;;;;;26.45;11.15;;;;;;;3.55;87.17;100140.81;1088239;54;20058;-80
2022/11/06 07:11:06;;;;;;;15.48;10.35;;;;;;;3.64;86.97;100133.22;1088205;54;20038;-80
2022/11/06 07:12:07;;;;;;;11.88;9.45;;;;;;;3.68;86.71;100127.66;1088136;54;20197;-79
2022/11/06 07:13:11;;;;;;;12.00;9.32;;;;;;;3.75;86.89;100125.47;1088148;46;20033;-79
2022/11/06 07:14:25;;;;;;;14.95;9.82;;;;;;;3.80;86.72;100125.16;1088112;54;20018;-85
2022/11/06 07:15:26;;;;;;;12.35;9.30;;;;;;;3.84;86.58;100118.72;1088056;54;20038;-78
2022/11/06 07:16:34;;;;;;;11.82;8.80;;;;;;;3.89;86.46;100111.34;1088027;54;20082;-81
2022/11/06 07:17:35;;;;;;;12.65;9.23;;;;;;;3.93;86.02;100112.81;1088017;54;20038;-79
2022/11/06 07:18:41;;;;;;;19.35;9.40;;;;;;;3.96;85.82;100109.16;1091366;46;20034;-80
2022/11/06 07:19:48;;;;;;;15.10;8.65;;;;;;;3.95;85.75;100112.75;1088190;54;20030;-80
2022/11/06 07:20:53;;;;;;;13.77;9.27;;;;;;;3.95;85.22;100115.38;1091750;39;20504;-80
2022/11/06 07:21:57;;;;;;;14.88;9.35;;;;;;;3.90;85.18;100119.16;1088280;54;20082;-79
2022/11/06 07:23:03;;;;;;;12.55;8.02;;;;;;;3.88;84.97;100115.75;1088106;54;20102;-81
2022/11/06 07:24:08;;;;;;;10.80;8.50;;;;;;;3.84;85.19;100109.00;1088271;46;20033;-79
2022/11/06 07:25:12;;;;;;;12.27;8.18;;;;;;;3.88;84.79;100110.47;1088195;54;20034;-79
2022/11/06 07:26:16;;;;;;;10.50;7.57;;;;;;;3.90;84.76;100105.94;1088269;54;20026;-80
2022/11/06 07:27:17;;;;;;;30.70;8.55;;;;;;;3.88;84.44;100110.47;1089137;46;20034;-79
2022/11/06 07:28:22;;;;;;;8.57;6.88;;;;;;;3.87;84.48;100108.78;1088163;54;20046;-79
2022/11/06 07:29:26;;;;;;;11.60;7.85;;;;;;;3.85;84.37;100100.13;1088020;54;20026;-81
2022/11/06 07:30:30;;;;;;;8.45;7.07;;;;;;;3.87;84.24;100103.47;1088115;54;20022;-80
2022/11/06 07:31:34;;;;;;;9.05;6.82;;;;;;;3.86;84.10;100095.66;1088141;54;20038;-80
2022/11/06 07:32:38;;;;;;;9.65;6.93;;;;;;;3.86;84.42;100101.81;1088306;46;20046;-79
2022/11/06 07:33:40;;;;;;;8.95;6.95;;;;;;;3.91;84.04;100098.88;1089348;46;20041;-78
2022/11/06 07:34:44;;;;;;;9.73;7.20;;;;;;;3.88;83.89;100094.59;1087818;54;20038;-78
2022/11/06 07:35:46;;;;;;;9.85;7.32;;;;;;;3.84;83.56;100098.41;1088530;46;20069;-79
2022/11/06 07:36:50;;;;;;;11.90;7.10;;;;;;;3.77;83.40;100097.13;1087823;54;20030;-78
2022/11/06 07:37:51;;;;;;;8.27;6.53;;;;;;;3.80;83.75;100083.69;1090540;39;20472;-79
2022/11/06 07:54:23;;;;;;;10.18;6.38;;;;;;;4.06;84.82;100042.28;1087233;54;20034;-79
2022/11/06 07:55:24;;;;;;;8.10;6.40;;;;;;;4.16;84.62;100028.44;1087051;54;20035;-80
2022/11/06 07:56:29;;;;;;;8.32;6.45;;;;;;;4.20;84.30;100033.41;1089615;39;21137;-80
2022/11/06 07:57:39;;;;;;;9.73;6.35;;;;;;;4.27;84.24;100033.00;1087191;54;20035;-80
2022/11/06 07:58:43;;;;;;;13.43;6.85;;;;;;;4.24;84.21;100030.56;1087108;54;20034;-79
2022/11/06 08:01:56;;;;;;;8.90;6.38;;;;;;;4.33;84.10;100041.38;1089317;39;21133;-79
2022/11/06 08:03:24;;;;;;;11.07;7.32;;;;;;;4.24;84.33;100038.50;1087302;46;20018;-80
2022/11/06 08:06:41;;;;;;;17.92;9.77;;;;;;;4.20;85.49;100036.06;1087228;54;20011;-80
2022/11/06 08:07:49;;;;;;;13.52;8.77;;;;;;;4.17;85.67;100028.31;1087975;46;20629;-79
2022/11/06 08:08:50;;;;;;;12.38;9.02;;;;;;;4.31;85.58;100037.13;1087009;54;20731;-79
2022/11/06 08:10:42;;;;;;;10.70;7.57;;;;;;;4.39;85.67;100024.22;1087224;54;20031;-78
2022/11/06 08:11:47;;;;;;;10.48;7.57;;;;;;;4.48;85.44;100028.88;1092058;39;20464;-79
2022/11/06 08:12:48;;;;;;;10.77;7.50;;;;;;;4.56;85.05;100030.13;1087242;54;20073;-78
2022/11/06 08:13:52;;;;;;;9.40;6.72;;;;;;;4.67;84.97;100032.91;1087449;54;20036;-79
2022/11/06 08:14:56;;;;;;;9.38;7.22;;;;;;;4.72;84.76;100025.50;1087860;39;20574;-78
2022/11/06 08:15:58;;;;;;;9.20;7.15;;;;;;;4.77;84.83;100033.94;1087562;54;20058;-79
2022/11/06 08:17:02;;;;;;;11.65;7.78;;;;;;;4.89;84.40;100020.78;1087519;54;20069;-79
2022/11/06 08:18:07;;;;;;;9.98;7.30;;;;;;;4.94;84.34;100023.94;1087375;54;20847;-79
2022/11/06 08:19:12;;;;;;;10.15;7.15;;;;;;;5.02;84.13;100024.25;1087526;54;20038;-79
2022/11/06 08:20:16;;;;;;;9.40;7.20;;;;;;;5.06;84.18;100025.75;1087545;46;20034;-79
2022/11/06 08:21:20;;;;;;;10.05;7.35;;;;;;;5.15;83.81;100022.44;1087557;54;20019;-79
2022/11/06 08:22:22;;;;;;;9.15;6.93;;;;;;;5.23;83.75;100019.22;1087490;54;20038;-79
2022/11/06 08:23:29;;;;;;;10.32;7.07;;;;;;;5.27;83.65;100020.69;1087716;54;20014;-80
2022/11/06 08:24:31;;;;;;;11.43;6.82;;;;;;;5.36;83.60;100019.19;1090970;46;20042;-79
2022/11/06 08:25:35;;;;;;;11.98;6.97;;;;;;;5.43;83.26;100019.59;1087758;46;20057;-79
2022/11/06 08:26:40;;;;;;;10.52;7.65;;;;;;;5.45;83.05;100018.50;1087575;54;20057;-79
2022/11/06 08:27:42;;;;;;;10.43;7.95;;;;;;;5.38;83.39;100022.56;1091015;39;20606;-79
2022/11/06 08:28:46;;;;;;;11.43;8.93;;;;;;;5.39;83.70;100018.94;1087584;54;20034;-79
2022/11/06 08:29:48;;;;;;;14.05;8.77;;;;;;;5.45;83.44;100025.59;1087451;54;20030;-79
2022/11/06 08:30:52;;;;;;;11.07;8.50;;;;;;;5.30;83.81;100025.78;1087511;54;20027;-79
2022/11/06 08:31:56;;;;;;;11.48;8.77;;;;;;;5.33;83.46;100026.53;1087619;54;20038;-80
2022/11/06 08:33:01;;;;;;;13.13;8.30;;;;;;;5.39;83.36;100023.41;1088807;46;20031;-80
2022/11/06 08:34:05;;;;;;;10.88;8.63;;;;;;;5.55;82.89;100023.97;1088058;39;20709;-80
2022/11/06 08:35:11;;;;;;;11.32;8.35;;;;;;;5.60;82.57;100021.84;1087639;46;20046;-80
2022/11/06 08:36:12;;;;;;;13.25;8.82;;;;;;;5.43;82.64;100019.59;1087694;54;20022;-80
2022/11/06 08:37:19;;;;;;;10.98;8.73;;;;;;;5.41;82.85;100019.69;1087506;54;20037;-80
2022/11/06 08:38:29;;;;;;;10.40;8.52;;;;;;;5.62;82.45;100030.50;1087647;54;20034;-80
2022/11/06 08:41:32;;;;;;;9.35;7.40;;;;;;;5.79;81.61;100028.44;1087421;54;20100;-79
2022/11/06 08:42:36;;;;;;;11.45;7.80;;;;;;;5.92;81.52;100028.34;1086965;54;20046;-79
2022/11/06 08:43:40;;;;;;;8.25;6.43;;;;;;;6.02;81.25;100028.53;1087324;54;20034;-80
2022/11/06 08:44:45;;;;;;;10.73;7.57;;;;;;;6.07;81.01;100035.19;1088577;46;20041;-80
2022/11/06 08:45:46;;;;;;;8.80;6.43;;;;;;;6.20;80.41;100023.66;1087471;54;20030;-79